Time;durP1;ratioP1;P1;durP2;ratioP2;P2;SDS_P1;SDS_P2;PMS_P1;PMS_P2;Temp;Humidity;BMP_temperature;BMP_pressure;BME280_temperature;BME280_humidity;BME280_pressure;Samples;Min_cycle;Max_cycle;Signal;HPM_P1;HPM_P2
2022/03/11 00:01:13;;;;;;;20.67;8.13;;;;;;;14.50;14.82;99854.38;5081699;28;20036;-76
2022/03/11 00:03:39;;;;;;;24.20;8.30;;;;;;;15.35;14.01;99851.69;5081409;28;20516;-76
2022/03/11 00:06:05;;;;;;;18.52;7.75;;;;;;;16.26;13.47;99849.00;5084541;28;20040;-76
2022/03/11 00:08:31;;;;;;;22.10;7.35;;;;;;;17.27;12.43;99854.66;5082659;28;20040;-76
2022/03/11 00:10:57;;;;;;;17.27;7.25;;;;;;;17.59;12.20;99852.97;5079395;28;20043;-75
2022/03/11 00:13:24;;;;;;;20.90;7.68;;;;;;;17.92;12.03;99848.06;5067133;28;20028;-75
2022/03/11 00:15:51;;;;;;;20.50;7.82;;;;;;;18.18;11.81;99850.44;5080229;28;20485;-76
2022/03/11 00:18:18;;;;;;;21.55;7.47;;;;;;;18.41;11.53;99848.75;5084482;28;20032;-76
2022/03/11 00:20:44;;;;;;;18.35;8.32;;;;;;;18.79;11.26;99853.81;5081165;28;20036;-76
2022/03/11 00:23:10;;;;;;;21.80;8.57;;;;;;;19.11;10.83;99840.78;5068675;28;20046;-75
2022/03/11 00:25:37;;;;;;;23.58;8.80;;;;;;;19.01;11.06;99835.75;5083106;28;20043;-76
2022/03/11 00:28:03;;;;;;;14.90;7.15;;;;;;;19.05;10.85;99833.84;5085859;28;20557;-75
2022/03/11 00:30:30;;;;;;;21.75;8.45;;;;;;;19.00;10.92;99836.88;5082531;28;20118;-75
2022/03/11 00:32:57;;;;;;;20.88;8.13;;;;;;;18.92;11.05;99835.09;5083577;28;20044;-75
2022/03/11 00:35:23;;;;;;;21.75;7.72;;;;;;;18.72;10.95;99833.38;5085699;28;20045;-75
2022/03/11 00:37:49;;;;;;;18.88;7.93;;;;;;;18.43;11.34;99826.97;5086742;28;20527;-75
2022/03/11 00:40:15;;;;;;;18.92;7.82;;;;;;;18.47;11.11;99833.47;5080082;28;20046;-75
2022/03/11 00:42:42;;;;;;;19.85;7.40;;;;;;;18.26;11.35;99832.00;5064624;28;20100;-75
2022/03/11 00:45:09;;;;;;;17.40;6.97;;;;;;;17.81;11.71;99832.22;5084982;28;20036;-75
2022/03/11 00:47:35;;;;;;;23.75;8.43;;;;;;;17.33;11.97;99829.44;5084219;28;20473;-75
2022/03/11 00:50:02;;;;;;;21.45;8.27;;;;;;;17.27;12.03;99831.63;5084681;28;20700;-75
2022/03/11 00:52:29;;;;;;;17.17;8.30;;;;;;;17.30;12.15;99817.06;5081617;28;20024;-75
2022/03/11 00:54:55;;;;;;;21.70;8.27;;;;;;;17.34;12.08;99833.84;5079473;28;20032;-75
2022/03/11 00:57:21;;;;;;;16.75;7.15;;;;;;;17.24;12.27;99826.78;5083609;28;20039;-75
2022/03/11 00:59:48;;;;;;;19.50;8.18;;;;;;;17.13;12.24;99825.59;5077149;28;20028;-75
2022/03/11 01:02:14;;;;;;;22.25;8.98;;;;;;;17.33;12.18;99819.16;5088525;28;20077;-75
2022/03/11 01:04:40;;;;;;;18.95;8.32;;;;;;;17.20;12.49;99828.63;5082625;28;20032;-75
2022/03/11 01:07:06;;;;;;;20.85;8.65;;;;;;;17.35;12.34;99832.69;5085633;28;20040;-76
2022/03/11 01:09:32;;;;;;;20.65;7.95;;;;;;;17.44;12.23;99827.81;5083534;28;20039;-76
2022/03/11 01:11:59;;;;;;;23.40;9.73;;;;;;;17.50;12.28;99829.22;5079510;28;20047;-75
2022/03/11 01:14:25;;;;;;;21.98;9.82;;;;;;;17.12;12.57;99832.31;5084867;28;20024;-75
2022/03/11 01:16:51;;;;;;;24.77;9.63;;;;;;;17.46;12.42;99825.50;5079421;28;20044;-75
2022/03/11 01:19:17;;;;;;;20.02;7.95;;;;;;;17.59;12.22;99829.94;5081762;28;20032;-74
2022/03/11 01:21:43;;;;;;;24.98;10.35;;;;;;;17.68;12.05;99827.84;5063307;28;20031;-75
2022/03/11 01:24:09;;;;;;;26.23;10.07;;;;;;;17.70;11.86;99828.31;5082288;28;20097;-75
2022/03/11 01:26:36;;;;;;;26.80;10.02;;;;;;;17.35;12.36;99825.16;5078983;28;20048;-75
2022/03/11 01:29:02;;;;;;;23.17;9.40;;;;;;;16.75;12.83;99825.91;5085371;28;20485;-75
2022/03/11 01:31:28;;;;;;;31.02;11.40;;;;;;;16.23;13.23;99821.97;5082704;28;20023;-75
2022/03/11 01:33:55;;;;;;;29.10;11.50;;;;;;;15.98;13.45;99825.75;5077903;28;20036;-75
2022/03/11 01:36:21;;;;;;;20.95;9.48;;;;;;;16.48;13.04;99826.44;5081118;28;20063;-75
2022/03/11 01:38:48;;;;;;;23.17;9.48;;;;;;;16.67;12.89;99812.09;5081410;28;20032;-74
2022/03/11 01:41:14;;;;;;;22.77;9.20;;;;;;;16.47;12.92;99820.13;5064424;28;20482;-74
2022/03/11 01:43:51;;;;;;;26.58;9.43;;;;;;;15.70;13.50;99804.13;5065841;28;20428;-75
2022/03/11 01:46:17;;;;;;;24.20;9.13;;;;;;;15.12;13.91;99813.19;5081759;28;20039;-75
2022/03/11 01:48:43;;;;;;;24.33;10.13;;;;;;;15.93;13.68;99810.16;5057575;28;20398;-75
2022/03/11 01:51:10;;;;;;;22.30;8.82;;;;;;;16.47;13.18;99819.31;5077008;28;20144;-75
2022/03/11 01:53:36;;;;;;;17.42;7.63;;;;;;;16.61;13.15;99814.31;5076632;28;20135;-75
2022/03/11 01:56:03;;;;;;;20.15;8.90;;;;;;;16.98;12.76;99816.00;5084681;28;20749;-75
2022/03/11 01:58:31;;;;;;;26.63;8.90;;;;;;;17.16;12.47;99819.38;5080050;28;20083;-75
2022/03/11 02:00:57;;;;;;;16.38;7.25;;;;;;;17.49;12.16;99817.31;5084838;28;20040;-75
2022/03/11 02:03:23;;;;;;;25.75;9.43;;;;;;;17.98;12.00;99817.25;5079507;28;20028;-75
2022/03/11 02:05:49;;;;;;;22.55;8.82;;;;;;;17.32;12.53;99819.53;5063299;28;20458;-75
2022/03/11 02:08:15;;;;;;;27.10;9.90;;;;;;;16.54;13.02;99820.41;5084520;28;20028;-75
2022/03/11 02:10:41;;;;;;;25.30;9.88;;;;;;;15.64;13.61;99816.53;5079680;28;20037;-75
2022/03/11 02:13:07;;;;;;;20.27;8.40;;;;;;;16.22;13.61;99823.13;5087979;28;20032;-74
2022/03/11 02:15:34;;;;;;;20.92;9.65;;;;;;;16.52;13.03;99825.47;5081618;28;20032;-75
2022/03/11 02:18:00;;;;;;;23.20;9.02;;;;;;;17.10;12.60;99821.59;5078564;28;20513;-75
2022/03/11 02:20:26;;;;;;;25.38;9.00;;;;;;;16.54;12.88;99830.69;5084073;28;20086;-75
2022/03/11 02:22:53;;;;;;;24.92;9.23;;;;;;;16.82;12.73;99823.38;5079995;28;20143;-75
2022/03/11 02:25:20;;;;;;;17.02;8.40;;;;;;;16.99;12.79;99823.16;5081890;28;20393;-75
2022/03/11 02:27:46;;;;;;;24.00;9.23;;;;;;;16.44;13.07;99831.88;5079184;28;20089;-75
2022/03/11 02:30:20;;;;;;;19.55;7.80;;;;;;;15.83;13.56;99827.16;5080234;28;20621;-75
2022/03/11 02:32:47;;;;;;;22.95;9.35;;;;;;;15.92;13.49;99829.88;5082822;28;20031;-75
2022/03/11 02:35:15;;;;;;;20.45;8.88;;;;;;;15.99;13.48;99830.94;5083448;28;20123;-75
2022/03/11 02:37:41;;;;;;;18.85;8.23;;;;;;;16.68;12.89;99831.19;5083048;28;20028;-75
2022/03/11 02:40:08;;;;;;;21.50;8.68;;;;;;;17.08;12.52;99825.84;5084209;28;20127;-75
2022/03/11 02:42:35;;;;;;;23.35;8.77;;;;;;;17.33;12.50;99821.13;5085487;28;20031;-74
2022/03/11 02:45:03;;;;;;;17.00;7.80;;;;;;;17.54;12.16;99824.63;5088380;28;20040;-75
2022/03/11 02:47:30;;;;;;;21.63;8.63;;;;;;;17.58;12.04;99818.03;5089063;28;20570;-75
2022/03/11 02:49:56;;;;;;;19.48;8.13;;;;;;;17.76;12.00;99832.50;5082617;28;20498;-75
2022/03/11 02:52:23;;;;;;;18.05;7.93;;;;;;;17.72;11.91;99832.34;5091228;28;20369;-75
2022/03/11 02:54:49;;;;;;;18.48;7.88;;;;;;;18.06;11.65;99831.03;5083247;28;20051;-75
2022/03/11 02:57:18;;;;;;;21.52;8.60;;;;;;;18.17;11.75;99826.59;5081759;28;20045;-75
2022/03/11 02:59:45;;;;;;;25.63;9.75;;;;;;;18.15;11.63;99830.88;5077917;28;20115;-75
2022/03/11 03:02:12;;;;;;;23.55;8.48;;;;;;;17.90;11.72;99832.91;5081736;28;20041;-75
2022/03/11 03:04:39;;;;;;;23.48;8.55;;;;;;;17.69;11.95;99833.03;5086065;28;20141;-75
2022/03/11 03:07:07;;;;;;;18.90;8.43;;;;;;;17.73;11.88;99834.00;5069913;28;20035;-74
2022/03/11 03:09:36;;;;;;;20.42;7.30;;;;;;;17.82;11.65;99842.19;5065740;28;20418;-75
2022/03/11 03:12:02;;;;;;;18.23;7.95;;;;;;;18.01;11.52;99841.56;5084279;28;20620;-75
2022/03/11 03:14:29;;;;;;;18.00;6.90;;;;;;;17.99;11.64;99844.72;5083017;28;20024;-75
2022/03/11 03:16:55;;;;;;;22.17;8.32;;;;;;;17.98;11.60;99840.31;5083220;28;20059;-74
2022/03/11 03:19:21;;;;;;;26.88;8.07;;;;;;;18.13;11.42;99839.59;5084309;28;20105;-74
2022/03/11 03:21:47;;;;;;;19.10;7.75;;;;;;;18.03;11.57;99840.06;5079333;28;20028;-75
2022/03/11 03:24:13;;;;;;;23.55;8.82;;;;;;;17.88;11.78;99833.25;5084025;28;20459;-74
2022/03/11 03:26:39;;;;;;;19.63;7.95;;;;;;;17.88;11.47;99838.81;5081824;28;20139;-74
2022/03/11 03:29:05;;;;;;;17.67;7.82;;;;;;;17.73;11.58;99836.78;5081933;28;20029;-74
2022/03/11 03:31:31;;;;;;;21.30;8.60;;;;;;;17.78;11.72;99844.06;5081019;28;20043;-75
2022/03/11 03:33:59;;;;;;;20.65;8.23;;;;;;;17.91;11.45;99832.56;5080674;28;20036;-75
2022/03/11 03:36:25;;;;;;;21.73;8.18;;;;;;;17.73;11.69;99830.41;5065887;28;20086;-74
2022/03/11 03:38:51;;;;;;;17.67;7.13;;;;;;;17.65;11.56;99837.69;5084889;28;20028;-74
2022/03/11 03:41:17;;;;;;;17.85;7.50;;;;;;;17.80;11.53;99833.41;5081790;28;20039;-74
2022/03/11 03:43:43;;;;;;;17.85;7.68;;;;;;;17.83;11.46;99833.50;5082253;28;20154;-75
2022/03/11 03:46:09;;;;;;;17.08;7.53;;;;;;;18.02;11.46;99834.88;5078464;28;20032;-74
2022/03/11 03:48:35;;;;;;;18.75;7.70;;;;;;;17.81;11.48;99835.00;5081750;28;20035;-75
2022/03/11 03:51:03;;;;;;;20.48;8.93;;;;;;;17.79;11.48;99829.00;5084538;28;20489;-75
2022/03/11 03:53:29;;;;;;;20.30;7.45;;;;;;;17.78;11.44;99824.59;5082940;28;20501;-74
2022/03/11 03:55:55;;;;;;;16.17;6.80;;;;;;;17.99;11.34;99822.47;5081034;28;20064;-75
2022/03/11 03:58:21;;;;;;;20.55;8.07;;;;;;;17.81;11.57;99830.25;5086847;28;20036;-74
2022/03/11 04:00:47;;;;;;;21.48;8.15;;;;;;;17.72;11.70;99826.00;5081066;28;20133;-74
2022/03/11 04:03:13;;;;;;;28.35;10.65;;;;;;;17.35;11.97;99825.16;5079427;28;20385;-74
2022/03/11 04:05:39;;;;;;;24.02;10.05;;;;;;;17.31;12.14;99823.44;5081420;28;20036;-74
2022/03/11 04:08:06;;;;;;;24.85;8.73;;;;;;;17.12;12.29;99833.13;5084546;28;20035;-74
2022/03/11 04:10:32;;;;;;;25.67;10.18;;;;;;;17.39;11.95;99839.97;5067680;28;20031;-74
2022/03/11 04:12:58;;;;;;;29.58;10.65;;;;;;;17.14;12.26;99835.56;5080762;28;20080;-74
2022/03/11 04:15:24;;;;;;;28.30;11.35;;;;;;;16.93;12.30;99829.28;5083422;28;20032;-74
2022/03/11 04:17:50;;;;;;;24.85;10.38;;;;;;;16.83;12.58;99836.06;5079618;28;20031;-74
2022/03/11 04:20:17;;;;;;;28.15;9.98;;;;;;;16.78;12.62;99846.59;5086264;28;20035;-74
2022/03/11 04:22:44;;;;;;;28.05;11.57;;;;;;;17.25;12.07;99839.50;5085168;28;20039;-74
2022/03/11 04:25:12;;;;;;;34.20;12.20;;;;;;;17.28;12.28;99836.03;5085113;28;20044;-74
2022/03/11 04:27:39;;;;;;;36.97;12.43;;;;;;;17.38;12.19;99830.03;5084571;28;20040;-74
2022/03/11 04:30:06;;;;;;;37.05;13.75;;;;;;;17.33;12.14;99833.03;5084712;28;20051;-74
2022/03/11 04:32:32;;;;;;;32.95;12.85;;;;;;;17.20;12.22;99832.22;5082209;28;20051;-74
2022/03/11 04:34:58;;;;;;;42.83;13.77;;;;;;;17.05;12.35;99834.84;5082452;28;20037;-74
2022/03/11 04:37:24;;;;;;;29.20;12.52;;;;;;;17.06;12.31;99839.25;5086618;28;20027;-74
2022/03/11 04:39:50;;;;;;;35.75;13.35;;;;;;;17.13;12.33;99839.47;5084366;28;20044;-74
2022/03/11 04:42:16;;;;;;;34.85;14.10;;;;;;;17.19;12.33;99838.94;5084330;28;20047;-74
2022/03/11 04:44:42;;;;;;;35.50;13.68;;;;;;;17.16;12.26;99836.84;5076799;28;20611;-74
2022/03/11 04:47:08;;;;;;;38.20;13.15;;;;;;;17.03;12.34;99839.94;5079631;28;20489;-74
2022/03/11 04:49:35;;;;;;;32.85;12.48;;;;;;;17.15;12.41;99837.19;5079383;28;20117;-74
2022/03/11 04:52:01;;;;;;;29.20;11.15;;;;;;;17.19;11.92;99840.88;5081266;28;20115;-74
2022/03/11 04:54:27;;;;;;;34.78;11.40;;;;;;;17.39;11.87;99841.94;5081971;28;20078;-74
2022/03/11 04:56:53;;;;;;;32.30;11.55;;;;;;;17.53;11.66;99842.44;5085853;28;20062;-74
2022/03/11 04:59:19;;;;;;;32.50;11.32;;;;;;;17.45;11.77;99841.38;5082182;28;20043;-74
2022/03/11 05:01:45;;;;;;;32.85;13.40;;;;;;;17.63;11.92;99842.78;5067389;28;20400;-74
2022/03/11 05:04:11;;;;;;;35.97;13.27;;;;;;;17.63;11.59;99845.56;5078956;28;20093;-75
2022/03/11 05:06:37;;;;;;;35.72;12.30;;;;;;;17.75;11.47;99848.34;5080943;28;20032;-74
2022/03/11 05:09:03;;;;;;;28.58;11.30;;;;;;;18.06;11.21;99842.16;5083300;28;20448;-74
2022/03/11 05:11:29;;;;;;;33.67;12.18;;;;;;;18.17;11.01;99839.69;5085200;28;20039;-74
2022/03/11 05:13:55;;;;;;;27.02;11.15;;;;;;;18.24;10.91;99837.94;5085984;28;20036;-74
2022/03/11 05:16:22;;;;;;;29.30;10.70;;;;;;;18.00;11.05;99842.72;5084864;28;20112;-74
2022/03/11 05:18:48;;;;;;;24.98;10.65;;;;;;;18.13;10.78;99847.94;5081101;28;20032;-75
2022/03/11 05:21:14;;;;;;;25.45;9.77;;;;;;;18.25;10.89;99842.31;5084582;28;20032;-74
2022/03/11 05:23:40;;;;;;;20.17;9.02;;;;;;;18.43;10.76;99846.44;5084847;28;20819;-74
2022/03/11 05:26:24;;;;;;;21.40;8.80;;;;;;;18.62;10.91;99849.38;5082863;28;20077;-74
2022/03/11 05:28:54;;;;;;;25.27;9.27;;;;;;;18.43;10.88;99849.22;5064167;28;20032;-74
2022/03/11 05:31:21;;;;;;;25.15;9.30;;;;;;;18.32;11.08;99852.84;5085146;28;20035;-74
2022/03/11 05:33:48;;;;;;;24.95;9.18;;;;;;;18.57;11.03;99837.72;5075889;28;20039;-74
2022/03/11 05:36:15;;;;;;;20.67;9.50;;;;;;;18.77;10.96;99849.78;5086775;28;20036;-74
2022/03/11 05:38:41;;;;;;;26.58;9.73;;;;;;;18.93;10.71;99840.31;5079784;28;20040;-74
2022/03/11 05:41:07;;;;;;;28.55;10.85;;;;;;;19.03;11.13;99842.56;5082942;28;20036;-74
2022/03/11 05:43:33;;;;;;;23.05;10.25;;;;;;;18.94;11.31;99849.47;5083964;28;20498;-74
2022/03/11 05:45:59;;;;;;;29.35;12.15;;;;;;;18.52;11.40;99854.66;5080872;28;20057;-74
2022/03/11 05:48:25;;;;;;;26.58;10.73;;;;;;;18.00;11.93;99868.56;5082714;28;20118;-75
2022/03/11 05:50:52;;;;;;;26.95;10.93;;;;;;;17.79;12.10;99868.69;5065606;28;20777;-74
2022/03/11 05:53:18;;;;;;;24.00;9.85;;;;;;;17.91;12.02;99865.09;5083380;28;20067;-75
2022/03/11 05:55:44;;;;;;;20.95;8.05;;;;;;;18.04;11.91;99863.13;5078892;28;20121;-75
2022/03/11 05:58:10;;;;;;;21.95;9.23;;;;;;;17.92;12.21;99866.72;5071776;28;20059;-74
2022/03/11 06:00:36;;;;;;;23.95;7.75;;;;;;;18.40;11.85;99880.50;5085615;28;20043;-74
2022/03/11 06:03:02;;;;;;;18.88;7.35;;;;;;;18.48;11.90;99874.00;5083958;28;20037;-74
2022/03/11 06:05:29;;;;;;;24.70;9.88;;;;;;;17.79;12.29;99879.00;5083329;28;20416;-74
2022/03/11 06:07:55;;;;;;;21.35;9.00;;;;;;;17.34;13.06;99884.63;5084656;28;20028;-75
2022/03/11 06:10:21;;;;;;;25.30;9.05;;;;;;;17.61;13.13;99881.22;5089832;28;20029;-74
2022/03/11 06:12:47;;;;;;;26.75;10.48;;;;;;;17.84;12.54;99881.53;5085586;28;20040;-75
2022/03/11 06:15:14;;;;;;;25.27;9.68;;;;;;;18.24;12.56;99881.59;5091009;28;20080;-74
2022/03/11 06:17:41;;;;;;;23.08;9.45;;;;;;;18.29;12.39;99882.16;5090326;28;20065;-74
2022/03/11 06:20:08;;;;;;;28.38;9.48;;;;;;;18.49;12.69;99886.75;5090044;28;20032;-74
2022/03/11 06:22:36;;;;;;;22.45;10.30;;;;;;;18.44;12.86;99886.97;5089478;28;20036;-74
2022/03/11 06:25:03;;;;;;;28.30;11.00;;;;;;;18.82;12.44;99891.28;5086341;28;20063;-75
2022/03/11 06:27:29;;;;;;;31.20;11.50;;;;;;;18.98;12.29;99880.97;5088246;28;20169;-75
2022/03/11 06:29:56;;;;;;;28.25;10.90;;;;;;;18.77;12.55;99886.78;5089662;28;20421;-75
2022/03/11 06:32:22;;;;;;;23.45;10.40;;;;;;;18.83;12.22;99893.72;5091971;28;20033;-75
2022/03/11 06:34:48;;;;;;;22.17;9.85;;;;;;;18.20;12.67;99898.19;5092461;28;20036;-75
2022/03/11 06:37:17;;;;;;;27.98;10.73;;;;;;;18.75;12.81;99894.66;5093311;28;20145;-75
2022/03/11 06:39:44;;;;;;;27.23;9.25;;;;;;;18.60;12.62;99887.06;5092705;28;20040;-74
2022/03/11 06:42:10;;;;;;;31.40;10.30;;;;;;;18.15;12.91;99894.81;5090811;28;20036;-75
2022/03/11 06:44:36;;;;;;;23.30;10.73;;;;;;;18.05;13.25;99892.50;5093261;28;20032;-75
2022/03/11 06:47:02;;;;;;;25.92;10.70;;;;;;;17.93;13.47;99894.16;5089430;28;20493;-75
2022/03/11 06:49:28;;;;;;;24.00;10.43;;;;;;;18.27;13.13;99892.84;5094917;28;20517;-75
2022/03/11 06:51:54;;;;;;;28.58;11.90;;;;;;;17.04;14.23;99891.50;5090394;28;21817;-75
2022/03/11 06:54:21;;;;;;;26.20;11.75;;;;;;;16.19;14.74;99895.84;5091230;28;20032;-75
2022/03/11 06:56:47;;;;;;;22.17;10.25;;;;;;;15.79;14.70;99896.28;5090742;28;20016;-75
2022/03/11 06:59:13;;;;;;;26.55;11.32;;;;;;;15.63;14.71;99897.16;5069621;28;20038;-75
2022/03/11 07:01:39;;;;;;;31.13;11.82;;;;;;;15.11;15.39;99902.06;5095607;28;20035;-75
2022/03/11 07:04:05;;;;;;;24.05;9.35;;;;;;;16.38;14.67;99898.97;5090867;28;20104;-74
2022/03/11 07:06:31;;;;;;;24.10;9.95;;;;;;;17.12;14.09;99904.47;5089879;28;20508;-75
2022/03/11 07:08:57;;;;;;;23.00;9.38;;;;;;;17.58;13.79;99897.75;5090423;28;20031;-75
2022/03/11 07:11:23;;;;;;;22.23;8.82;;;;;;;16.56;14.75;99904.06;5076229;28;20047;-75
2022/03/11 07:13:50;;;;;;;16.27;7.32;;;;;;;17.77;13.92;99907.13;5092345;28;20028;-74
2022/03/11 07:16:16;;;;;;;19.75;7.82;;;;;;;17.09;14.28;99914.31;5079718;28;20027;-75
2022/03/11 07:18:42;;;;;;;17.65;6.93;;;;;;;16.94;13.39;99912.16;5091986;28;20036;-75
2022/03/11 07:21:09;;;;;;;17.88;7.55;;;;;;;16.96;13.35;99909.06;5094102;28;20529;-75
2022/03/11 07:23:35;;;;;;;20.55;7.68;;;;;;;17.83;13.26;99913.25;5095677;28;20107;-75
2022/03/11 07:26:01;;;;;;;14.77;6.72;;;;;;;18.08;13.02;99908.50;5091660;28;20058;-75
2022/03/11 07:28:27;;;;;;;15.25;7.05;;;;;;;18.00;12.80;99907.47;5076172;28;20020;-74
2022/03/11 07:30:53;;;;;;;15.38;7.45;;;;;;;19.05;12.50;99906.22;5093864;28;20031;-75
2022/03/11 07:33:19;;;;;;;15.35;6.32;;;;;;;18.20;12.96;99900.97;5088827;28;20078;-75
2022/03/11 07:35:45;;;;;;;14.60;6.72;;;;;;;18.93;12.55;99900.72;5090803;28;20051;-75
2022/03/11 07:38:12;;;;;;;15.52;6.35;;;;;;;19.49;11.74;99890.31;5092417;28;20490;-75
2022/03/11 07:40:38;;;;;;;13.05;5.50;;;;;;;18.62;12.16;99899.47;5088220;28;20127;-75
2022/03/11 07:43:06;;;;;;;12.50;6.43;;;;;;;17.98;12.42;99906.19;5088096;28;20107;-75
2022/03/11 07:45:32;;;;;;;14.20;5.28;;;;;;;17.63;12.32;99901.13;5090753;28;20641;-75
2022/03/11 07:47:58;;;;;;;11.30;5.55;;;;;;;17.47;12.68;99910.44;5092682;28;20474;-75
2022/03/11 07:50:24;;;;;;;11.50;5.22;;;;;;;15.81;14.20;99909.78;5094757;28;20032;-75
2022/03/11 07:52:50;;;;;;;15.95;5.60;;;;;;;16.58;13.75;99909.25;5088900;28;20035;-75
2022/03/11 07:55:17;;;;;;;14.38;5.78;;;;;;;15.53;13.91;99903.06;5094822;28;20056;-75
2022/03/11 07:57:43;;;;;;;17.42;5.90;;;;;;;16.00;13.73;99904.63;5091595;28;20028;-75
2022/03/11 08:00:10;;;;;;;14.95;6.03;;;;;;;16.32;13.17;99903.06;5086661;28;20094;-75
2022/03/11 08:02:36;;;;;;;18.38;6.63;;;;;;;16.65;13.17;99900.38;5087083;28;20486;-75
2022/03/11 08:05:03;;;;;;;12.50;5.10;;;;;;;16.40;13.64;99905.78;5088750;28;20489;-75
2022/03/11 08:07:29;;;;;;;10.02;4.75;;;;;;;16.68;12.91;99911.63;5090945;28;20059;-75
2022/03/11 08:09:56;;;;;;;10.35;4.72;;;;;;;17.12;12.86;99905.28;5089626;28;20059;-75
2022/03/11 08:12:22;;;;;;;11.98;5.68;;;;;;;15.63;13.73;99902.72;5088536;28;20031;-75
2022/03/11 08:14:48;;;;;;;14.23;5.63;;;;;;;15.71;13.54;99902.66;5087566;28;20040;-75
2022/03/11 08:17:15;;;;;;;12.93;5.78;;;;;;;15.16;14.34;99904.66;5089352;28;20099;-75
2022/03/11 08:19:41;;;;;;;13.15;4.88;;;;;;;14.19;14.98;99911.69;5087055;28;20031;-76
2022/03/11 08:22:08;;;;;;;11.30;4.50;;;;;;;16.13;13.84;99899.94;5092208;28;20032;-77
2022/03/11 08:24:34;;;;;;;12.15;4.95;;;;;;;17.16;13.18;99891.53;5085347;28;20040;-77
2022/03/11 08:27:00;;;;;;;11.65;5.15;;;;;;;17.42;12.49;99900.38;5092984;28;20043;-76
2022/03/11 08:29:32;;;;;;;9.90;5.28;;;;;;;17.75;12.34;99908.63;5089202;28;20070;-77
2022/03/11 08:31:59;;;;;;;10.32;5.00;;;;;;;17.94;11.94;99900.53;5091233;28;20039;-77
2022/03/11 08:34:25;;;;;;;10.02;5.10;;;;;;;16.32;12.76;99916.94;5088105;28;20030;-77
2022/03/11 08:36:51;;;;;;;6.78;3.75;;;;;;;16.93;12.60;99913.31;5093648;28;20412;-76
2022/03/11 08:39:17;;;;;;;9.82;4.78;;;;;;;13.97;13.79;99916.53;5092359;28;20039;-76
2022/03/11 08:41:43;;;;;;;10.40;3.95;;;;;;;14.59;13.79;99915.16;5092758;28;20643;-77
2022/03/11 08:44:09;;;;;;;10.15;4.95;;;;;;;13.78;15.04;99916.81;5067188;28;20058;-76
2022/03/11 08:46:38;;;;;;;10.07;4.80;;;;;;;14.12;15.11;99919.66;5071996;28;20165;-76
2022/03/11 08:49:06;;;;;;;10.75;4.05;;;;;;;16.19;13.41;99913.28;5089865;28;20062;-77
2022/03/11 08:51:33;;;;;;;9.73;4.60;;;;;;;14.03;14.00;99920.75;5087557;28;20120;-76
2022/03/11 08:53:59;;;;;;;10.95;4.72;;;;;;;13.42;14.52;99916.22;5088206;28;20077;-78
2022/03/11 08:56:25;;;;;;;6.75;3.95;;;;;;;13.26;14.33;99917.75;5070126;28;20079;-78
2022/03/11 08:58:51;;;;;;;8.70;4.25;;;;;;;12.72;14.37;99921.63;5085062;28;20038;-76
2022/03/11 09:01:18;;;;;;;11.18;5.18;;;;;;;15.19;13.74;99910.31;5089224;28;20059;-75
2022/03/11 09:03:45;;;;;;;10.32;4.20;;;;;;;12.89;14.00;99914.28;5086488;28;20036;-75
2022/03/11 09:06:11;;;;;;;12.30;4.95;;;;;;;10.34;16.78;99920.06;5081920;28;20548;-75
2022/03/11 09:08:37;;;;;;;8.35;4.45;;;;;;;9.67;17.25;99920.41;5088178;28;20032;-75
2022/03/11 09:11:03;;;;;;;10.85;4.63;;;;;;;12.93;15.63;99909.75;5087201;28;20035;-75
2022/03/11 09:13:29;;;;;;;8.90;4.38;;;;;;;10.45;16.73;99903.44;5085520;28;20040;-75
2022/03/11 09:15:55;;;;;;;10.50;4.88;;;;;;;11.61;16.52;99902.09;5065989;28;20131;-75
2022/03/11 09:18:21;;;;;;;11.73;5.43;;;;;;;11.00;16.44;99905.22;5087998;28;20043;-75
2022/03/11 09:20:48;;;;;;;10.23;5.53;;;;;;;10.71;16.82;99910.16;5088834;28;20515;-75
2022/03/11 09:23:14;;;;;;;10.25;5.40;;;;;;;9.82;17.53;99917.50;5087748;28;20438;-75
2022/03/11 09:25:40;;;;;;;9.40;5.18;;;;;;;8.96;18.61;99914.94;5088637;28;20123;-75
2022/03/11 09:28:07;;;;;;;14.82;6.20;;;;;;;10.22;18.02;99919.69;5088994;28;20042;-75
2022/03/11 09:30:33;;;;;;;14.15;5.07;;;;;;;10.27;17.57;99914.13;5086908;28;20028;-76
2022/03/11 09:32:59;;;;;;;13.10;5.85;;;;;;;11.63;16.44;99902.59;5068398;28;20033;-76
2022/03/11 09:35:26;;;;;;;12.13;6.03;;;;;;;11.30;16.61;99892.81;5087925;28;20521;-76
2022/03/11 09:37:52;;;;;;;15.10;6.82;;;;;;;12.73;15.74;99891.00;5083789;28;20099;-75
2022/03/11 09:40:18;;;;;;;12.45;6.45;;;;;;;13.98;14.53;99901.63;5089078;28;20031;-76
2022/03/11 09:42:45;;;;;;;14.68;5.40;;;;;;;14.18;14.33;99889.94;5088564;28;20063;-75
2022/03/11 09:45:11;;;;;;;11.45;5.45;;;;;;;16.02;13.52;99888.47;5092484;28;20511;-75
2022/03/11 09:47:39;;;;;;;11.77;6.43;;;;;;;14.64;14.24;99894.81;5071491;28;20061;-75
2022/03/11 09:50:06;;;;;;;10.15;4.75;;;;;;;12.08;15.02;99898.09;5089487;28;20059;-75
2022/03/11 09:52:34;;;;;;;12.07;5.68;;;;;;;10.80;16.08;99905.59;5090745;28;20553;-75
2022/03/11 09:55:00;;;;;;;12.57;5.55;;;;;;;13.90;14.79;99892.19;5092148;28;20044;-76
2022/03/11 09:57:27;;;;;;;8.68;4.85;;;;;;;13.19;13.72;99893.38;5095889;28;20027;-76
2022/03/11 09:59:53;;;;;;;11.93;5.45;;;;;;;14.58;12.85;99893.38;5089115;28;20045;-76
2022/03/11 10:02:19;;;;;;;8.15;4.32;;;;;;;15.94;12.72;99888.53;5091156;28;20036;-75
2022/03/11 10:04:52;;;;;;;7.72;4.25;;;;;;;14.88;13.24;99890.41;5092715;28;20487;-75
2022/03/11 10:07:31;;;;;;;11.85;4.80;;;;;;;17.47;11.70;99871.56;5090811;28;20482;-76
2022/03/11 10:10:10;;;;;;;11.10;4.15;;;;;;;16.94;10.54;99878.88;5094810;28;20046;-75
2022/03/11 10:12:45;;;;;;;8.98;4.10;;;;;;;17.13;11.48;99889.44;5091021;28;20068;-75
2022/03/11 10:15:12;;;;;;;10.18;4.50;;;;;;;17.92;11.02;99888.97;5090724;28;20082;-75
2022/03/11 10:17:40;;;;;;;14.30;6.68;;;;;;;14.88;12.44;99893.19;5092051;28;20036;-76
2022/03/11 10:20:08;;;;;;;9.68;4.82;;;;;;;13.59;15.42;99897.78;5093940;28;20374;-76
2022/03/11 10:22:35;;;;;;;12.35;5.30;;;;;;;12.54;14.57;99900.56;5093116;28;21844;-76
2022/03/11 10:25:08;;;;;;;15.38;5.63;;;;;;;12.33;14.87;99895.56;5074452;28;20027;-76
2022/03/11 10:27:52;;;;;;;10.38;5.15;;;;;;;12.94;14.74;99888.53;5086447;28;20443;-76
2022/03/11 10:30:18;;;;;;;9.93;5.03;;;;;;;11.78;16.31;99899.59;5091445;28;20028;-76
2022/03/11 10:32:56;;;;;;;8.65;4.30;;;;;;;13.93;14.87;99905.34;5075173;28;20031;-76
2022/03/11 10:35:47;;;;;;;10.80;4.50;;;;;;;16.17;11.60;99887.06;5090754;28;20040;-76
2022/03/11 10:38:19;;;;;;;8.70;4.15;;;;;;;18.15;10.34;99875.38;5088031;28;20485;-75
2022/03/11 10:40:57;;;;;;;9.25;4.30;;;;;;;15.29;11.86;99881.47;5094781;28;20039;-76
2022/03/11 10:43:25;;;;;;;8.07;4.15;;;;;;;13.42;13.53;99889.44;5087132;28;20394;-75
2022/03/11 10:46:07;;;;;;;8.32;3.85;;;;;;;14.49;13.03;99887.88;5089216;28;20051;-76
2022/03/11 10:48:49;;;;;;;7.45;3.97;;;;;;;14.78;12.28;99885.22;5094560;28;20032;-76
2022/03/11 10:51:33;;;;;;;7.22;3.45;;;;;;;17.02;11.19;99871.59;5091546;28;20035;-76
2022/03/11 10:54:01;;;;;;;7.30;3.10;;;;;;;17.04;10.87;99863.75;5094063;28;20027;-76
2022/03/11 10:56:39;;;;;;;6.78;3.97;;;;;;;14.54;12.69;99882.16;5073325;28;20253;-76
2022/03/11 10:59:26;;;;;;;7.95;3.38;;;;;;;15.11;12.27;99874.41;5090033;28;21520;-79
2022/03/11 11:01:53;;;;;;;8.55;3.45;;;;;;;14.48;12.42;99878.75;5070610;28;20031;-76
2022/03/11 11:04:19;;;;;;;7.95;4.18;;;;;;;15.30;12.55;99866.53;5090060;28;20032;-77
2022/03/11 11:06:46;;;;;;;9.55;3.45;;;;;;;14.21;12.79;99872.72;5098437;27;20039;-76
2022/03/11 11:09:17;;;;;;;7.35;3.70;;;;;;;16.98;11.60;99863.19;5094508;28;20559;-76
2022/03/11 11:11:43;;;;;;;8.65;4.10;;;;;;;18.55;10.27;99867.88;5092125;28;20028;-76
2022/03/11 11:14:10;;;;;;;6.47;3.30;;;;;;;18.98;9.77;99861.50;5075555;28;20020;-76
2022/03/11 11:16:40;;;;;;;8.52;3.63;;;;;;;17.46;10.49;99856.88;5092682;28;20036;-77
2022/03/11 11:19:08;;;;;;;11.52;4.03;;;;;;;16.25;11.07;99858.47;5092553;28;20036;-77
2022/03/11 11:21:36;;;;;;;6.25;2.72;;;;;;;17.58;11.66;99858.88;5089307;28;20506;-77
2022/03/11 11:24:04;;;;;;;6.38;3.28;;;;;;;18.58;10.29;99861.56;5090046;28;20149;-77